sensor_id;sensor_type;location;lat;lon;timestamp;P1;durP1;ratioP1;P2;durP2;ratioP2
39728;SDS011;25402;42.004;23.088;2024-01-30T00:00:30;14.93;;;6.82;;
39728;SDS011;25402;42.004;23.088;2024-01-30T00:02:57;14.95;;;6.78;;
39728;SDS011;25402;42.004;23.088;2024-01-30T00:05:24;20.55;;;8.75;;
39728;SDS011;25402;42.004;23.088;2024-01-30T00:07:51;17.08;;;7.63;;
39728;SDS011;25402;42.004;23.088;2024-01-30T00:10:19;17.05;;;8.23;;
39728;SDS011;25402;42.004;23.088;2024-01-30T00:12:46;17.80;;;8.02;;
39728;SDS011;25402;42.004;23.088;2024-01-30T00:15:14;15.30;;;7.60;;
39728;SDS011;25402;42.004;23.088;2024-01-30T00:17:41;14.10;;;6.78;;
39728;SDS011;25402;42.004;23.088;2024-01-30T00:20:08;19.30;;;8.63;;
39728;SDS011;25402;42.004;23.088;2024-01-30T00:22:36;30.67;;;10.73;;
39728;SDS011;25402;42.004;23.088;2024-01-30T00:25:04;18.73;;;8.27;;
39728;SDS011;25402;42.004;23.088;2024-01-30T00:27:32;21.33;;;9.10;;
39728;SDS011;25402;42.004;23.088;2024-01-30T00:29:59;20.50;;;9.45;;
39728;SDS011;25402;42.004;23.088;2024-01-30T00:32:27;24.45;;;9.80;;
39728;SDS011;25402;42.004;23.088;2024-01-30T00:34:54;29.27;;;10.52;;
39728;SDS011;25402;42.004;23.088;2024-01-30T00:37:21;18.58;;;7.60;;
39728;SDS011;25402;42.004;23.088;2024-01-30T00:39:48;17.77;;;7.20;;
39728;SDS011;25402;42.004;23.088;2024-01-30T00:42:15;36.70;;;11.35;;
39728;SDS011;25402;42.004;23.088;2024-01-30T00:44:44;28.02;;;9.27;;
39728;SDS011;25402;42.004;23.088;2024-01-30T00:47:11;22.80;;;8.55;;
39728;SDS011;25402;42.004;23.088;2024-01-30T00:49:38;27.08;;;9.13;;
39728;SDS011;25402;42.004;23.088;2024-01-30T00:52:05;17.85;;;7.63;;
39728;SDS011;25402;42.004;23.088;2024-01-30T00:54:32;22.23;;;8.55;;
39728;SDS011;25402;42.004;23.088;2024-01-30T00:57:00;23.80;;;8.82;;
39728;SDS011;25402;42.004;23.088;2024-01-30T00:59:27;20.20;;;7.82;;
39728;SDS011;25402;42.004;23.088;2024-01-30T01:01:55;19.25;;;8.15;;
39728;SDS011;25402;42.004;23.088;2024-01-30T01:04:22;17.33;;;7.20;;
39728;SDS011;25402;42.004;23.088;2024-01-30T01:06:50;15.40;;;6.88;;
39728;SDS011;25402;42.004;23.088;2024-01-30T01:09:17;17.80;;;7.10;;
39728;SDS011;25402;42.004;23.088;2024-01-30T01:11:44;16.33;;;7.15;;
39728;SDS011;25402;42.004;23.088;2024-01-30T01:14:11;15.18;;;6.47;;
39728;SDS011;25402;42.004;23.088;2024-01-30T01:16:38;12.02;;;5.60;;
39728;SDS011;25402;42.004;23.088;2024-01-30T01:19:06;14.73;;;6.57;;
39728;SDS011;25402;42.004;23.088;2024-01-30T01:21:33;8.93;;;3.90;;
39728;SDS011;25402;42.004;23.088;2024-01-30T01:24:00;11.23;;;3.97;;
39728;SDS011;25402;42.004;23.088;2024-01-30T01:26:27;12.68;;;5.38;;
39728;SDS011;25402;42.004;23.088;2024-01-30T01:28:54;16.73;;;6.80;;
39728;SDS011;25402;42.004;23.088;2024-01-30T01:31:21;32.47;;;8.43;;
39728;SDS011;25402;42.004;23.088;2024-01-30T01:33:50;18.10;;;7.10;;
39728;SDS011;25402;42.004;23.088;2024-01-30T01:36:18;15.55;;;6.53;;
39728;SDS011;25402;42.004;23.088;2024-01-30T01:38:45;17.58;;;6.53;;
39728;SDS011;25402;42.004;23.088;2024-01-30T01:41:12;14.13;;;6.57;;
39728;SDS011;25402;42.004;23.088;2024-01-30T01:43:39;15.73;;;7.07;;
39728;SDS011;25402;42.004;23.088;2024-01-30T01:46:06;14.27;;;6.32;;
39728;SDS011;25402;42.004;23.088;2024-01-30T01:48:34;18.45;;;7.68;;
39728;SDS011;25402;42.004;23.088;2024-01-30T01:51:04;20.55;;;7.78;;
39728;SDS011;25402;42.004;23.088;2024-01-30T01:53:34;21.40;;;7.95;;
39728;SDS011;25402;42.004;23.088;2024-01-30T01:56:01;16.33;;;6.45;;
39728;SDS011;25402;42.004;23.088;2024-01-30T01:58:28;14.32;;;6.60;;
39728;SDS011;25402;42.004;23.088;2024-01-30T02:00:55;11.30;;;5.95;;
39728;SDS011;25402;42.004;23.088;2024-01-30T02:03:23;16.33;;;6.72;;
39728;SDS011;25402;42.004;23.088;2024-01-30T02:05:50;13.77;;;6.50;;
39728;SDS011;25402;42.004;23.088;2024-01-30T02:08:18;14.50;;;5.90;;
39728;SDS011;25402;42.004;23.088;2024-01-30T02:10:46;15.20;;;6.55;;
39728;SDS011;25402;42.004;23.088;2024-01-30T02:13:13;12.63;;;5.63;;
39728;SDS011;25402;42.004;23.088;2024-01-30T02:15:40;14.93;;;5.57;;
39728;SDS011;25402;42.004;23.088;2024-01-30T02:18:07;11.27;;;5.18;;
39728;SDS011;25402;42.004;23.088;2024-01-30T02:20:34;10.57;;;5.35;;
39728;SDS011;25402;42.004;23.088;2024-01-30T02:23:03;10.65;;;5.57;;
39728;SDS011;25402;42.004;23.088;2024-01-30T02:25:32;8.70;;;4.60;;
39728;SDS011;25402;42.004;23.088;2024-01-30T02:28:00;10.50;;;4.85;;
39728;SDS011;25402;42.004;23.088;2024-01-30T02:30:27;13.68;;;4.90;;
39728;SDS011;25402;42.004;23.088;2024-01-30T02:32:54;13.07;;;5.43;;
39728;SDS011;25402;42.004;23.088;2024-01-30T02:35:21;17.70;;;7.88;;
39728;SDS011;25402;42.004;23.088;2024-01-30T02:37:48;17.83;;;7.47;;
39728;SDS011;25402;42.004;23.088;2024-01-30T02:40:16;8.77;;;4.45;;
39728;SDS011;25402;42.004;23.088;2024-01-30T02:42:44;9.68;;;4.75;;
39728;SDS011;25402;42.004;23.088;2024-01-30T02:45:11;14.40;;;6.72;;
39728;SDS011;25402;42.004;23.088;2024-01-30T02:47:39;12.20;;;6.20;;
39728;SDS011;25402;42.004;23.088;2024-01-30T02:50:07;7.70;;;3.83;;
39728;SDS011;25402;42.004;23.088;2024-01-30T02:52:35;9.95;;;3.72;;
39728;SDS011;25402;42.004;23.088;2024-01-30T02:55:02;6.63;;;3.70;;
39728;SDS011;25402;42.004;23.088;2024-01-30T02:57:31;7.88;;;4.63;;
39728;SDS011;25402;42.004;23.088;2024-01-30T03:00:00;8.48;;;3.67;;
39728;SDS011;25402;42.004;23.088;2024-01-30T03:02:29;7.13;;;3.40;;
39728;SDS011;25402;42.004;23.088;2024-01-30T03:04:56;11.02;;;4.85;;
39728;SDS011;25402;42.004;23.088;2024-01-30T03:07:23;8.70;;;3.80;;
39728;SDS011;25402;42.004;23.088;2024-01-30T03:09:50;13.85;;;5.18;;
39728;SDS011;25402;42.004;23.088;2024-01-30T03:12:17;12.18;;;4.95;;
39728;SDS011;25402;42.004;23.088;2024-01-30T03:14:46;10.18;;;5.03;;
39728;SDS011;25402;42.004;23.088;2024-01-30T03:17:14;13.52;;;5.45;;
39728;SDS011;25402;42.004;23.088;2024-01-30T03:19:41;10.48;;;4.95;;
39728;SDS011;25402;42.004;23.088;2024-01-30T03:22:08;13.25;;;5.20;;
39728;SDS011;25402;42.004;23.088;2024-01-30T03:24:35;12.05;;;4.65;;
39728;SDS011;25402;42.004;23.088;2024-01-30T03:27:03;9.60;;;4.15;;
39728;SDS011;25402;42.004;23.088;2024-01-30T03:29:30;19.92;;;6.15;;
39728;SDS011;25402;42.004;23.088;2024-01-30T03:32:01;81.20;;;10.02;;
39728;SDS011;25402;42.004;23.088;2024-01-30T03:34:29;61.53;;;6.50;;
39728;SDS011;25402;42.004;23.088;2024-01-30T03:36:56;69.75;;;7.60;;
39728;SDS011;25402;42.004;23.088;2024-01-30T03:39:23;30.95;;;6.47;;
39728;SDS011;25402;42.004;23.088;2024-01-30T03:41:50;21.85;;;5.78;;
39728;SDS011;25402;42.004;23.088;2024-01-30T03:44:17;21.30;;;5.80;;
39728;SDS011;25402;42.004;23.088;2024-01-30T03:46:44;22.70;;;6.20;;
39728;SDS011;25402;42.004;23.088;2024-01-30T03:49:13;18.80;;;5.85;;
39728;SDS011;25402;42.004;23.088;2024-01-30T03:51:40;14.57;;;6.72;;
39728;SDS011;25402;42.004;23.088;2024-01-30T03:54:07;15.48;;;6.10;;
39728;SDS011;25402;42.004;23.088;2024-01-30T03:56:35;17.13;;;8.60;;
39728;SDS011;25402;42.004;23.088;2024-01-30T03:59:02;10.85;;;5.38;;
39728;SDS011;25402;42.004;23.088;2024-01-30T04:01:29;14.02;;;6.15;;
39728;SDS011;25402;42.004;23.088;2024-01-30T04:03:56;12.48;;;5.82;;
39728;SDS011;25402;42.004;23.088;2024-01-30T04:06:24;17.73;;;6.90;;
39728;SDS011;25402;42.004;23.088;2024-01-30T04:08:51;20.60;;;8.32;;
39728;SDS011;25402;42.004;23.088;2024-01-30T04:11:18;29.88;;;11.88;;
39728;SDS011;25402;42.004;23.088;2024-01-30T04:13:46;33.45;;;12.35;;
39728;SDS011;25402;42.004;23.088;2024-01-30T04:16:19;22.17;;;10.50;;
39728;SDS011;25402;42.004;23.088;2024-01-30T04:21:13;19.08;;;7.82;;
39728;SDS011;25402;42.004;23.088;2024-01-30T04:23:42;23.83;;;7.25;;
39728;SDS011;25402;42.004;23.088;2024-01-30T04:26:09;11.65;;;6.15;;
39728;SDS011;25402;42.004;23.088;2024-01-30T04:28:36;15.25;;;7.10;;
39728;SDS011;25402;42.004;23.088;2024-01-30T04:31:03;21.67;;;7.93;;
39728;SDS011;25402;42.004;23.088;2024-01-30T04:33:30;23.92;;;7.72;;
39728;SDS011;25402;42.004;23.088;2024-01-30T04:35:57;19.60;;;7.82;;
39728;SDS011;25402;42.004;23.088;2024-01-30T04:38:24;12.30;;;4.80;;
39728;SDS011;25402;42.004;23.088;2024-01-30T04:40:53;11.23;;;5.65;;
39728;SDS011;25402;42.004;23.088;2024-01-30T04:43:20;18.02;;;6.05;;
39728;SDS011;25402;42.004;23.088;2024-01-30T04:45:48;15.27;;;3.95;;
39728;SDS011;25402;42.004;23.088;2024-01-30T04:48:15;33.75;;;12.45;;
39728;SDS011;25402;42.004;23.088;2024-01-30T04:50:43;16.23;;;5.72;;
39728;SDS011;25402;42.004;23.088;2024-01-30T04:53:09;15.38;;;5.28;;
39728;SDS011;25402;42.004;23.088;2024-01-30T04:55:37;35.80;;;12.07;;
39728;SDS011;25402;42.004;23.088;2024-01-30T04:58:05;11.95;;;5.57;;
39728;SDS011;25402;42.004;23.088;2024-01-30T05:00:32;15.60;;;6.70;;
39728;SDS011;25402;42.004;23.088;2024-01-30T05:03:00;21.70;;;8.52;;
39728;SDS011;25402;42.004;23.088;2024-01-30T05:05:27;58.40;;;28.30;;
39728;SDS011;25402;42.004;23.088;2024-01-30T05:07:54;131.18;;;58.65;;
39728;SDS011;25402;42.004;23.088;2024-01-30T05:10:21;44.72;;;20.02;;
39728;SDS011;25402;42.004;23.088;2024-01-30T05:12:48;28.33;;;11.20;;
39728;SDS011;25402;42.004;23.088;2024-01-30T05:15:17;23.98;;;10.50;;
39728;SDS011;25402;42.004;23.088;2024-01-30T05:17:45;25.20;;;12.00;;
39728;SDS011;25402;42.004;23.088;2024-01-30T05:20:12;68.25;;;12.48;;
39728;SDS011;25402;42.004;23.088;2024-01-30T05:22:41;23.38;;;8.93;;
39728;SDS011;25402;42.004;23.088;2024-01-30T05:25:10;27.73;;;8.30;;
39728;SDS011;25402;42.004;23.088;2024-01-30T05:27:39;28.20;;;8.65;;
39728;SDS011;25402;42.004;23.088;2024-01-30T05:30:07;50.03;;;9.07;;
39728;SDS011;25402;42.004;23.088;2024-01-30T05:32:36;32.25;;;13.48;;
39728;SDS011;25402;42.004;23.088;2024-01-30T05:35:03;39.88;;;14.52;;
39728;SDS011;25402;42.004;23.088;2024-01-30T05:37:30;122.45;;;51.63;;
39728;SDS011;25402;42.004;23.088;2024-01-30T05:39:57;53.95;;;20.80;;
39728;SDS011;25402;42.004;23.088;2024-01-30T05:42:25;30.02;;;12.98;;
39728;SDS011;25402;42.004;23.088;2024-01-30T05:44:53;23.13;;;10.63;;
39728;SDS011;25402;42.004;23.088;2024-01-30T05:47:20;23.73;;;9.95;;
39728;SDS011;25402;42.004;23.088;2024-01-30T05:49:48;25.75;;;11.63;;
39728;SDS011;25402;42.004;23.088;2024-01-30T05:52:15;60.05;;;21.60;;
39728;SDS011;25402;42.004;23.088;2024-01-30T05:54:44;27.70;;;10.30;;
39728;SDS011;25402;42.004;23.088;2024-01-30T05:57:11;29.77;;;9.63;;
39728;SDS011;25402;42.004;23.088;2024-01-30T05:59:38;25.17;;;11.07;;
39728;SDS011;25402;42.004;23.088;2024-01-30T06:02:05;34.85;;;14.23;;
39728;SDS011;25402;42.004;23.088;2024-01-30T06:04:32;32.38;;;12.52;;
39728;SDS011;25402;42.004;23.088;2024-01-30T06:07:01;32.05;;;10.85;;
39728;SDS011;25402;42.004;23.088;2024-01-30T06:09:28;24.20;;;9.88;;
39728;SDS011;25402;42.004;23.088;2024-01-30T06:11:55;20.05;;;9.32;;
39728;SDS011;25402;42.004;23.088;2024-01-30T06:14:22;33.30;;;10.02;;
39728;SDS011;25402;42.004;23.088;2024-01-30T06:16:49;32.58;;;10.80;;
39728;SDS011;25402;42.004;23.088;2024-01-30T06:19:16;38.75;;;14.18;;
39728;SDS011;25402;42.004;23.088;2024-01-30T06:21:44;37.42;;;14.15;;
39728;SDS011;25402;42.004;23.088;2024-01-30T06:24:12;29.88;;;8.07;;
39728;SDS011;25402;42.004;23.088;2024-01-30T06:26:39;17.77;;;6.80;;
39728;SDS011;25402;42.004;23.088;2024-01-30T06:29:07;41.20;;;13.77;;
39728;SDS011;25402;42.004;23.088;2024-01-30T06:31:39;106.97;;;37.60;;
39728;SDS011;25402;42.004;23.088;2024-01-30T06:34:06;101.53;;;25.93;;
39728;SDS011;25402;42.004;23.088;2024-01-30T06:36:34;89.40;;;24.15;;
39728;SDS011;25402;42.004;23.088;2024-01-30T06:39:01;51.25;;;19.95;;
39728;SDS011;25402;42.004;23.088;2024-01-30T06:41:30;51.47;;;16.48;;
39728;SDS011;25402;42.004;23.088;2024-01-30T06:43:57;47.53;;;17.88;;
39728;SDS011;25402;42.004;23.088;2024-01-30T06:46:24;81.57;;;26.63;;
39728;SDS011;25402;42.004;23.088;2024-01-30T06:48:51;85.38;;;21.88;;
39728;SDS011;25402;42.004;23.088;2024-01-30T06:51:18;85.40;;;21.52;;
39728;SDS011;25402;42.004;23.088;2024-01-30T06:53:45;81.10;;;19.65;;
39728;SDS011;25402;42.004;23.088;2024-01-30T06:56:14;163.00;;;22.15;;
39728;SDS011;25402;42.004;23.088;2024-01-30T06:58:47;61.53;;;17.27;;
39728;SDS011;25402;42.004;23.088;2024-01-30T07:01:14;45.25;;;16.52;;
39728;SDS011;25402;42.004;23.088;2024-01-30T07:03:41;42.33;;;16.27;;
39728;SDS011;25402;42.004;23.088;2024-01-30T07:06:08;45.65;;;17.42;;
39728;SDS011;25402;42.004;23.088;2024-01-30T07:08:36;44.75;;;15.27;;
39728;SDS011;25402;42.004;23.088;2024-01-30T07:11:04;47.13;;;15.30;;
39728;SDS011;25402;42.004;23.088;2024-01-30T07:13:31;41.67;;;14.38;;
39728;SDS011;25402;42.004;23.088;2024-01-30T07:16:00;49.20;;;15.70;;
39728;SDS011;25402;42.004;23.088;2024-01-30T07:18:27;81.60;;;15.05;;
39728;SDS011;25402;42.004;23.088;2024-01-30T07:20:54;46.47;;;12.98;;
39728;SDS011;25402;42.004;23.088;2024-01-30T07:23:22;88.40;;;13.52;;
39728;SDS011;25402;42.004;23.088;2024-01-30T07:25:52;26.50;;;8.80;;
39728;SDS011;25402;42.004;23.088;2024-01-30T07:28:20;53.08;;;10.45;;
39728;SDS011;25402;42.004;23.088;2024-01-30T07:30:47;35.25;;;9.43;;
39728;SDS011;25402;42.004;23.088;2024-01-30T07:33:17;35.38;;;11.38;;
39728;SDS011;25402;42.004;23.088;2024-01-30T07:35:44;127.30;;;13.30;;
39728;SDS011;25402;42.004;23.088;2024-01-30T07:38:11;36.00;;;10.38;;
39728;SDS011;25402;42.004;23.088;2024-01-30T07:40:38;25.42;;;9.52;;
39728;SDS011;25402;42.004;23.088;2024-01-30T07:43:06;22.23;;;10.07;;
39728;SDS011;25402;42.004;23.088;2024-01-30T07:45:34;23.77;;;11.13;;
39728;SDS011;25402;42.004;23.088;2024-01-30T07:48:02;29.20;;;12.75;;
39728;SDS011;25402;42.004;23.088;2024-01-30T07:50:31;31.05;;;11.40;;
39728;SDS011;25402;42.004;23.088;2024-01-30T07:52:59;22.45;;;10.35;;
39728;SDS011;25402;42.004;23.088;2024-01-30T07:55:26;26.00;;;8.85;;
39728;SDS011;25402;42.004;23.088;2024-01-30T07:57:54;25.98;;;9.30;;
39728;SDS011;25402;42.004;23.088;2024-01-30T08:00:21;15.43;;;7.18;;
39728;SDS011;25402;42.004;23.088;2024-01-30T08:02:48;13.07;;;6.72;;
39728;SDS011;25402;42.004;23.088;2024-01-30T08:05:15;22.42;;;5.80;;
39728;SDS011;25402;42.004;23.088;2024-01-30T08:07:44;13.65;;;5.30;;
39728;SDS011;25402;42.004;23.088;2024-01-30T08:10:11;47.88;;;19.33;;
39728;SDS011;25402;42.004;23.088;2024-01-30T08:12:38;35.85;;;14.63;;
39728;SDS011;25402;42.004;23.088;2024-01-30T08:15:06;17.40;;;5.85;;
39728;SDS011;25402;42.004;23.088;2024-01-30T08:17:34;19.42;;;7.13;;
39728;SDS011;25402;42.004;23.088;2024-01-30T08:20:01;38.03;;;10.13;;
39728;SDS011;25402;42.004;23.088;2024-01-30T08:22:29;21.80;;;7.85;;
39728;SDS011;25402;42.004;23.088;2024-01-30T08:24:58;26.85;;;8.55;;
39728;SDS011;25402;42.004;23.088;2024-01-30T08:27:25;28.38;;;7.90;;
39728;SDS011;25402;42.004;23.088;2024-01-30T08:29:52;20.98;;;6.82;;
39728;SDS011;25402;42.004;23.088;2024-01-30T08:32:19;13.90;;;5.15;;
39728;SDS011;25402;42.004;23.088;2024-01-30T08:34:46;39.40;;;6.25;;
39728;SDS011;25402;42.004;23.088;2024-01-30T08:37:13;14.98;;;5.30;;
39728;SDS011;25402;42.004;23.088;2024-01-30T08:39:41;19.17;;;5.30;;
39728;SDS011;25402;42.004;23.088;2024-01-30T08:42:10;13.88;;;5.10;;
39728;SDS011;25402;42.004;23.088;2024-01-30T08:44:37;13.95;;;6.03;;
39728;SDS011;25402;42.004;23.088;2024-01-30T08:47:05;36.58;;;10.73;;
39728;SDS011;25402;42.004;23.088;2024-01-30T08:49:32;18.27;;;5.95;;
39728;SDS011;25402;42.004;23.088;2024-01-30T08:51:59;15.35;;;5.18;;
39728;SDS011;25402;42.004;23.088;2024-01-30T08:54:26;39.20;;;6.30;;
39728;SDS011;25402;42.004;23.088;2024-01-30T08:56:53;73.70;;;7.60;;
39728;SDS011;25402;42.004;23.088;2024-01-30T08:59:23;30.58;;;6.63;;
39728;SDS011;25402;42.004;23.088;2024-01-30T09:01:50;111.10;;;9.68;;
39728;SDS011;25402;42.004;23.088;2024-01-30T09:04:20;12.02;;;4.88;;
39728;SDS011;25402;42.004;23.088;2024-01-30T09:06:47;3.63;;;2.30;;
39728;SDS011;25402;42.004;23.088;2024-01-30T09:09:15;7.90;;;2.70;;
39728;SDS011;25402;42.004;23.088;2024-01-30T09:11:42;13.18;;;3.17;;
39728;SDS011;25402;42.004;23.088;2024-01-30T09:14:10;7.10;;;2.35;;
39728;SDS011;25402;42.004;23.088;2024-01-30T09:16:38;18.50;;;2.40;;
39728;SDS011;25402;42.004;23.088;2024-01-30T09:19:05;4.53;;;2.50;;
39728;SDS011;25402;42.004;23.088;2024-01-30T09:21:44;4.28;;;2.35;;
39728;SDS011;25402;42.004;23.088;2024-01-30T09:24:11;9.60;;;2.50;;
39728;SDS011;25402;42.004;23.088;2024-01-30T09:26:38;4.88;;;2.30;;
39728;SDS011;25402;42.004;23.088;2024-01-30T09:29:05;10.25;;;2.30;;
39728;SDS011;25402;42.004;23.088;2024-01-30T09:31:32;4.25;;;2.50;;
39728;SDS011;25402;42.004;23.088;2024-01-30T09:34:01;4.88;;;2.38;;
39728;SDS011;25402;42.004;23.088;2024-01-30T09:36:28;9.75;;;2.25;;
39728;SDS011;25402;42.004;23.088;2024-01-30T09:38:55;3.63;;;2.35;;
39728;SDS011;25402;42.004;23.088;2024-01-30T09:41:22;4.50;;;2.45;;
39728;SDS011;25402;42.004;23.088;2024-01-30T09:43:51;5.28;;;2.42;;
39728;SDS011;25402;42.004;23.088;2024-01-30T09:46:20;3.92;;;2.40;;
39728;SDS011;25402;42.004;23.088;2024-01-30T09:48:51;34.58;;;4.15;;
39728;SDS011;25402;42.004;23.088;2024-01-30T09:51:20;3.22;;;2.00;;
39728;SDS011;25402;42.004;23.088;2024-01-30T09:53:48;5.57;;;2.47;;
39728;SDS011;25402;42.004;23.088;2024-01-30T09:56:16;7.85;;;3.00;;
39728;SDS011;25402;42.004;23.088;2024-01-30T09:58:46;16.13;;;2.70;;
39728;SDS011;25402;42.004;23.088;2024-01-30T10:01:14;5.75;;;2.30;;
39728;SDS011;25402;42.004;23.088;2024-01-30T10:03:44;11.77;;;2.50;;
39728;SDS011;25402;42.004;23.088;2024-01-30T10:06:11;6.57;;;2.80;;
39728;SDS011;25402;42.004;23.088;2024-01-30T10:08:39;8.13;;;2.47;;
39728;SDS011;25402;42.004;23.088;2024-01-30T10:11:08;6.68;;;2.33;;
39728;SDS011;25402;42.004;23.088;2024-01-30T10:13:36;3.70;;;2.08;;
39728;SDS011;25402;42.004;23.088;2024-01-30T10:16:05;9.27;;;2.13;;
39728;SDS011;25402;42.004;23.088;2024-01-30T10:18:33;4.93;;;2.30;;
39728;SDS011;25402;42.004;23.088;2024-01-30T10:21:00;7.15;;;3.50;;
39728;SDS011;25402;42.004;23.088;2024-01-30T10:23:28;38.33;;;4.15;;
39728;SDS011;25402;42.004;23.088;2024-01-30T10:25:57;8.10;;;2.67;;
39728;SDS011;25402;42.004;23.088;2024-01-30T10:28:26;4.32;;;2.17;;
39728;SDS011;25402;42.004;23.088;2024-01-30T10:30:58;4.90;;;2.53;;
39728;SDS011;25402;42.004;23.088;2024-01-30T10:33:26;13.43;;;3.53;;
39728;SDS011;25402;42.004;23.088;2024-01-30T10:35:55;29.88;;;3.30;;
39728;SDS011;25402;42.004;23.088;2024-01-30T10:38:27;3.97;;;2.45;;
39728;SDS011;25402;42.004;23.088;2024-01-30T10:40:58;6.60;;;2.58;;
39728;SDS011;25402;42.004;23.088;2024-01-30T10:43:28;5.82;;;3.05;;
39728;SDS011;25402;42.004;23.088;2024-01-30T10:46:00;4.03;;;2.60;;
39728;SDS011;25402;42.004;23.088;2024-01-30T10:48:36;3.72;;;1.92;;
39728;SDS011;25402;42.004;23.088;2024-01-30T10:51:08;103.93;;;5.63;;
39728;SDS011;25402;42.004;23.088;2024-01-30T10:53:37;10.63;;;2.58;;
39728;SDS011;25402;42.004;23.088;2024-01-30T10:56:07;4.50;;;2.30;;
39728;SDS011;25402;42.004;23.088;2024-01-30T10:58:36;9.38;;;2.03;;
39728;SDS011;25402;42.004;23.088;2024-01-30T11:01:04;7.95;;;2.60;;
39728;SDS011;25402;42.004;23.088;2024-01-30T11:03:32;4.78;;;2.60;;
39728;SDS011;25402;42.004;23.088;2024-01-30T11:06:02;12.68;;;2.47;;
39728;SDS011;25402;42.004;23.088;2024-01-30T11:08:31;9.00;;;2.80;;
39728;SDS011;25402;42.004;23.088;2024-01-30T11:10:59;4.50;;;2.50;;
39728;SDS011;25402;42.004;23.088;2024-01-30T11:13:28;9.75;;;2.10;;
39728;SDS011;25402;42.004;23.088;2024-01-30T11:15:59;4.13;;;2.38;;
39728;SDS011;25402;42.004;23.088;2024-01-30T11:18:28;6.95;;;2.20;;
39728;SDS011;25402;42.004;23.088;2024-01-30T11:20:56;6.40;;;2.25;;
39728;SDS011;25402;42.004;23.088;2024-01-30T11:23:26;5.90;;;2.47;;
39728;SDS011;25402;42.004;23.088;2024-01-30T11:25:53;5.85;;;2.80;;
39728;SDS011;25402;42.004;23.088;2024-01-30T11:28:21;6.28;;;2.85;;
39728;SDS011;25402;42.004;23.088;2024-01-30T11:30:49;11.10;;;2.70;;
39728;SDS011;25402;42.004;23.088;2024-01-30T11:33:26;3.72;;;2.22;;
39728;SDS011;25402;42.004;23.088;2024-01-30T11:35:56;12.93;;;2.15;;
39728;SDS011;25402;42.004;23.088;2024-01-30T11:38:27;21.10;;;2.90;;
39728;SDS011;25402;42.004;23.088;2024-01-30T11:40:54;43.63;;;3.20;;
39728;SDS011;25402;42.004;23.088;2024-01-30T11:43:22;31.33;;;2.50;;
39728;SDS011;25402;42.004;23.088;2024-01-30T11:45:51;6.72;;;2.78;;
39728;SDS011;25402;42.004;23.088;2024-01-30T11:48:18;6.88;;;2.47;;
39728;SDS011;25402;42.004;23.088;2024-01-30T11:50:45;3.13;;;2.42;;
39728;SDS011;25402;42.004;23.088;2024-01-30T11:53:13;13.85;;;3.13;;
39728;SDS011;25402;42.004;23.088;2024-01-30T11:55:40;4.28;;;2.40;;
39728;SDS011;25402;42.004;23.088;2024-01-30T11:58:08;10.82;;;2.50;;
39728;SDS011;25402;42.004;23.088;2024-01-30T12:00:35;3.60;;;2.00;;
39728;SDS011;25402;42.004;23.088;2024-01-30T12:03:04;20.55;;;2.70;;
39728;SDS011;25402;42.004;23.088;2024-01-30T12:05:32;13.43;;;2.60;;
39728;SDS011;25402;42.004;23.088;2024-01-30T12:07:59;15.75;;;3.28;;
39728;SDS011;25402;42.004;23.088;2024-01-30T12:10:26;4.88;;;2.45;;
39728;SDS011;25402;42.004;23.088;2024-01-30T12:12:53;9.85;;;2.58;;
39728;SDS011;25402;42.004;23.088;2024-01-30T12:15:21;12.13;;;2.83;;
39728;SDS011;25402;42.004;23.088;2024-01-30T12:17:50;13.35;;;2.92;;
39728;SDS011;25402;42.004;23.088;2024-01-30T12:20:19;11.55;;;3.10;;
39728;SDS011;25402;42.004;23.088;2024-01-30T12:22:47;9.35;;;2.90;;
39728;SDS011;25402;42.004;23.088;2024-01-30T12:25:15;4.88;;;3.03;;
39728;SDS011;25402;42.004;23.088;2024-01-30T12:27:43;12.40;;;3.08;;
39728;SDS011;25402;42.004;23.088;2024-01-30T12:30:12;9.55;;;3.03;;
39728;SDS011;25402;42.004;23.088;2024-01-30T12:32:40;9.35;;;2.80;;
39728;SDS011;25402;42.004;23.088;2024-01-30T12:35:09;7.53;;;2.90;;
39728;SDS011;25402;42.004;23.088;2024-01-30T12:37:38;12.98;;;3.15;;
39728;SDS011;25402;42.004;23.088;2024-01-30T12:40:06;7.50;;;2.90;;
39728;SDS011;25402;42.004;23.088;2024-01-30T12:42:34;15.52;;;3.53;;
39728;SDS011;25402;42.004;23.088;2024-01-30T12:45:02;9.18;;;3.58;;
39728;SDS011;25402;42.004;23.088;2024-01-30T12:47:29;6.22;;;3.28;;
39728;SDS011;25402;42.004;23.088;2024-01-30T12:49:56;9.90;;;3.10;;
39728;SDS011;25402;42.004;23.088;2024-01-30T12:52:24;5.57;;;3.08;;
39728;SDS011;25402;42.004;23.088;2024-01-30T12:54:53;5.95;;;3.20;;
39728;SDS011;25402;42.004;23.088;2024-01-30T12:57:20;4.70;;;2.70;;
39728;SDS011;25402;42.004;23.088;2024-01-30T12:59:47;4.45;;;3.08;;
39728;SDS011;25402;42.004;23.088;2024-01-30T13:02:14;12.73;;;3.58;;
39728;SDS011;25402;42.004;23.088;2024-01-30T13:04:42;9.98;;;4.70;;
39728;SDS011;25402;42.004;23.088;2024-01-30T13:07:09;7.30;;;3.65;;
39728;SDS011;25402;42.004;23.088;2024-01-30T13:09:36;5.22;;;3.10;;
39728;SDS011;25402;42.004;23.088;2024-01-30T13:12:05;12.00;;;2.95;;
39728;SDS011;25402;42.004;23.088;2024-01-30T13:14:33;13.05;;;3.90;;
39728;SDS011;25402;42.004;23.088;2024-01-30T13:17:00;19.63;;;4.10;;
39728;SDS011;25402;42.004;23.088;2024-01-30T13:19:28;11.15;;;3.00;;
39728;SDS011;25402;42.004;23.088;2024-01-30T13:21:55;24.13;;;3.40;;
39728;SDS011;25402;42.004;23.088;2024-01-30T13:24:22;42.45;;;4.80;;
39728;SDS011;25402;42.004;23.088;2024-01-30T13:26:49;5.20;;;3.00;;
39728;SDS011;25402;42.004;23.088;2024-01-30T13:29:18;5.45;;;3.10;;
39728;SDS011;25402;42.004;23.088;2024-01-30T13:31:45;5.03;;;2.83;;
39728;SDS011;25402;42.004;23.088;2024-01-30T13:34:12;4.75;;;2.55;;
39728;SDS011;25402;42.004;23.088;2024-01-30T13:36:40;45.17;;;4.35;;
39728;SDS011;25402;42.004;23.088;2024-01-30T13:39:08;5.03;;;2.92;;
39728;SDS011;25402;42.004;23.088;2024-01-30T13:41:36;5.10;;;2.80;;
39728;SDS011;25402;42.004;23.088;2024-01-30T13:44:03;15.05;;;4.07;;
39728;SDS011;25402;42.004;23.088;2024-01-30T13:46:32;3.92;;;2.63;;
39728;SDS011;25402;42.004;23.088;2024-01-30T13:49:01;7.03;;;2.90;;
39728;SDS011;25402;42.004;23.088;2024-01-30T13:51:28;6.95;;;2.92;;
39728;SDS011;25402;42.004;23.088;2024-01-30T13:53:55;10.88;;;2.90;;
39728;SDS011;25402;42.004;23.088;2024-01-30T13:56:22;5.00;;;3.13;;
39728;SDS011;25402;42.004;23.088;2024-01-30T13:58:50;4.28;;;2.80;;
39728;SDS011;25402;42.004;23.088;2024-01-30T14:01:17;7.95;;;3.33;;
39728;SDS011;25402;42.004;23.088;2024-01-30T14:03:45;56.17;;;5.00;;
39728;SDS011;25402;42.004;23.088;2024-01-30T14:06:13;5.65;;;2.88;;
39728;SDS011;25402;42.004;23.088;2024-01-30T14:08:40;5.53;;;2.63;;
39728;SDS011;25402;42.004;23.088;2024-01-30T14:11:07;5.65;;;2.90;;
39728;SDS011;25402;42.004;23.088;2024-01-30T14:13:34;4.88;;;2.83;;
39728;SDS011;25402;42.004;23.088;2024-01-30T14:16:02;4.78;;;2.78;;
39728;SDS011;25402;42.004;23.088;2024-01-30T14:18:29;7.18;;;2.80;;
39728;SDS011;25402;42.004;23.088;2024-01-30T14:20:57;6.15;;;3.35;;
39728;SDS011;25402;42.004;23.088;2024-01-30T14:23:24;6.72;;;3.20;;
39728;SDS011;25402;42.004;23.088;2024-01-30T14:25:51;5.05;;;2.90;;
39728;SDS011;25402;42.004;23.088;2024-01-30T14:28:19;7.20;;;3.03;;